sensor_id;sensor_type;location;lat;lon;timestamp;pressure;altitude;pressure_sealevel;temperature;humidity
40982;BME280;26708;50.304;19.028;2023-05-23T00:01:48;98092.31;;;16.21;48.46
40982;BME280;26708;50.304;19.028;2023-05-23T00:04:10;97875.75;;;14.90;48.49
40982;BME280;26708;50.304;19.028;2023-05-23T00:06:34;98114.28;;;16.21;48.67
40982;BME280;26708;50.304;19.028;2023-05-23T00:08:55;98038.81;;;15.87;48.76
40982;BME280;26708;50.304;19.028;2023-05-23T00:11:15;97944.06;;;15.26;48.76
40982;BME280;26708;50.304;19.028;2023-05-23T00:13:35;98087.06;;;16.19;48.89
40982;BME280;26708;50.304;19.028;2023-05-23T00:15:54;98081.81;;;16.18;48.95
40982;BME280;26708;50.304;19.028;2023-05-23T00:18:14;98029.31;;;15.82;48.75
40982;BME280;26708;50.304;19.028;2023-05-23T00:20:34;98087.47;;;16.08;49.13
40982;BME280;26708;50.304;19.028;2023-05-23T00:22:58;98081.47;;;16.03;49.39
40982;BME280;26708;50.304;19.028;2023-05-23T00:25:18;98061.75;;;15.85;49.27
40982;BME280;26708;50.304;19.028;2023-05-23T00:27:24;97924.19;;;14.86;49.28
40982;BME280;26708;50.304;19.028;2023-05-23T00:29:29;98050.84;;;15.70;49.56
40982;BME280;26708;50.304;19.028;2023-05-23T00:31:33;98069.69;;;15.85;49.79
40982;BME280;26708;50.304;19.028;2023-05-23T00:33:38;98016.16;;;15.53;49.93
40982;BME280;26708;50.304;19.028;2023-05-23T00:35:43;98074.13;;;15.85;50.11
40982;BME280;26708;50.304;19.028;2023-05-23T00:37:50;98072.47;;;15.81;49.82
40982;BME280;26708;50.304;19.028;2023-05-23T00:39:59;97858.94;;;14.36;49.54
40982;BME280;26708;50.304;19.028;2023-05-23T00:42:04;98077.88;;;15.76;49.96
40982;BME280;26708;50.304;19.028;2023-05-23T00:44:10;97947.97;;;14.83;50.15
40982;BME280;26708;50.304;19.028;2023-05-23T00:46:16;98071.03;;;15.71;50.21
40982;BME280;26708;50.304;19.028;2023-05-23T00:48:20;98012.66;;;15.25;50.42
40982;BME280;26708;50.304;19.028;2023-05-23T00:50:27;98010.19;;;15.19;50.43
40982;BME280;26708;50.304;19.028;2023-05-23T00:52:49;98011.75;;;15.26;50.56
40982;BME280;26708;50.304;19.028;2023-05-23T00:55:12;98027.41;;;15.32;50.54
40982;BME280;26708;50.304;19.028;2023-05-23T00:57:32;97956.91;;;14.79;50.44
40982;BME280;26708;50.304;19.028;2023-05-23T00:59:55;97935.63;;;14.56;50.66
40982;BME280;26708;50.304;19.028;2023-05-23T01:02:15;98045.03;;;15.30;50.72
40982;BME280;26708;50.304;19.028;2023-05-23T01:04:36;98063.88;;;15.47;50.88
40982;BME280;26708;50.304;19.028;2023-05-23T01:06:57;98054.56;;;15.34;50.95
40982;BME280;26708;50.304;19.028;2023-05-23T01:09:18;97842.06;;;14.14;50.97
40982;BME280;26708;50.304;19.028;2023-05-23T01:11:33;98079.72;;;15.45;50.92
40982;BME280;26708;50.304;19.028;2023-05-23T01:13:53;97919.94;;;14.51;51.22
40982;BME280;26708;50.304;19.028;2023-05-23T01:16:08;98077.25;;;15.39;51.43
40982;BME280;26708;50.304;19.028;2023-05-23T01:18:23;98016.94;;;14.98;51.39
40982;BME280;26708;50.304;19.028;2023-05-23T01:20:36;98073.00;;;15.35;51.25
40982;BME280;26708;50.304;19.028;2023-05-23T01:23:06;98026.25;;;15.11;51.39
40982;BME280;26708;50.304;19.028;2023-05-23T01:25:32;98041.03;;;15.17;51.38
40982;BME280;26708;50.304;19.028;2023-05-23T01:27:55;98065.22;;;15.31;51.36
40982;BME280;26708;50.304;19.028;2023-05-23T01:30:20;98068.72;;;15.31;51.21
40982;BME280;26708;50.304;19.028;2023-05-23T01:32:43;98073.06;;;15.32;51.38
40982;BME280;26708;50.304;19.028;2023-05-23T01:35:05;97852.00;;;14.01;51.54
40982;BME280;26708;50.304;19.028;2023-05-23T01:37:26;98011.66;;;15.00;51.29
40982;BME280;26708;50.304;19.028;2023-05-23T01:39:46;98038.81;;;15.03;51.33
40982;BME280;26708;50.304;19.028;2023-05-23T01:42:07;97946.91;;;14.61;51.07
40982;BME280;26708;50.304;19.028;2023-05-23T01:44:31;97912.19;;;14.47;51.24
40982;BME280;26708;50.304;19.028;2023-05-23T01:46:38;97940.66;;;14.63;51.40
40982;BME280;26708;50.304;19.028;2023-05-23T01:48:46;98055.66;;;15.27;51.50
40982;BME280;26708;50.304;19.028;2023-05-23T01:50:51;98004.28;;;14.80;51.57
40982;BME280;26708;50.304;19.028;2023-05-23T01:52:58;98059.31;;;15.23;51.53
40982;BME280;26708;50.304;19.028;2023-05-23T01:55:06;98056.69;;;15.23;51.55
40982;BME280;26708;50.304;19.028;2023-05-23T01:57:13;98045.25;;;15.22;51.61
40982;BME280;26708;50.304;19.028;2023-05-23T01:59:19;97821.72;;;13.88;51.64
40982;BME280;26708;50.304;19.028;2023-05-23T02:01:27;97950.44;;;14.60;51.47
40982;BME280;26708;50.304;19.028;2023-05-23T02:03:33;98058.41;;;15.24;51.63
40982;BME280;26708;50.304;19.028;2023-05-23T02:05:39;98055.81;;;15.22;51.58
40982;BME280;26708;50.304;19.028;2023-05-23T02:07:44;98000.50;;;14.89;51.57
40982;BME280;26708;50.304;19.028;2023-05-23T02:10:08;97900.84;;;14.13;51.69
40982;BME280;26708;50.304;19.028;2023-05-23T02:12:28;98049.91;;;15.13;51.72
40982;BME280;26708;50.304;19.028;2023-05-23T02:14:48;98044.84;;;15.07;51.81
40982;BME280;26708;50.304;19.028;2023-05-23T02:17:11;97948.53;;;14.34;52.10
40982;BME280;26708;50.304;19.028;2023-05-23T02:19:31;98042.75;;;14.87;52.24
40982;BME280;26708;50.304;19.028;2023-05-23T02:21:51;98055.94;;;14.87;52.43
40982;BME280;26708;50.304;19.028;2023-05-23T02:24:10;97891.16;;;13.81;52.31
40982;BME280;26708;50.304;19.028;2023-05-23T02:26:30;98057.19;;;14.73;52.51
40982;BME280;26708;50.304;19.028;2023-05-23T02:28:49;97976.97;;;14.22;52.65
40982;BME280;26708;50.304;19.028;2023-05-23T02:31:10;97902.38;;;13.54;52.94
40982;BME280;26708;50.304;19.028;2023-05-23T02:33:32;98030.56;;;14.51;52.86
40982;BME280;26708;50.304;19.028;2023-05-23T02:35:51;98054.72;;;14.67;52.75
40982;BME280;26708;50.304;19.028;2023-05-23T02:38:11;98061.69;;;14.69;52.79
40982;BME280;26708;50.304;19.028;2023-05-23T02:40:31;98029.53;;;14.57;52.77
40982;BME280;26708;50.304;19.028;2023-05-23T02:42:51;98049.50;;;14.65;52.84
40982;BME280;26708;50.304;19.028;2023-05-23T02:45:13;98053.94;;;14.63;53.05
40982;BME280;26708;50.304;19.028;2023-05-23T02:47:32;98054.91;;;14.61;52.94
40982;BME280;26708;50.304;19.028;2023-05-23T02:49:42;98048.78;;;14.59;53.25
40982;BME280;26708;50.304;19.028;2023-05-23T02:51:47;98050.59;;;14.57;53.22
40982;BME280;26708;50.304;19.028;2023-05-23T02:53:51;97938.50;;;13.83;53.33
40982;BME280;26708;50.304;19.028;2023-05-23T02:55:57;97977.94;;;14.18;53.24
40982;BME280;26708;50.304;19.028;2023-05-23T02:58:01;98069.97;;;14.54;53.30
40982;BME280;26708;50.304;19.028;2023-05-23T03:00:08;97821.00;;;13.16;53.34
40982;BME280;26708;50.304;19.028;2023-05-23T03:02:15;98048.06;;;14.54;53.51
40982;BME280;26708;50.304;19.028;2023-05-23T03:04:20;98051.53;;;14.54;53.49
40982;BME280;26708;50.304;19.028;2023-05-23T03:06:27;98014.28;;;14.36;53.43
40982;BME280;26708;50.304;19.028;2023-05-23T03:08:33;97839.84;;;13.33;53.39
40982;BME280;26708;50.304;19.028;2023-05-23T03:10:37;97908.63;;;13.50;53.69
40982;BME280;26708;50.304;19.028;2023-05-23T03:12:42;97852.44;;;13.21;53.94
40982;BME280;26708;50.304;19.028;2023-05-23T03:14:49;97980.84;;;14.07;53.90
40982;BME280;26708;50.304;19.028;2023-05-23T03:16:54;97851.81;;;13.45;53.72
40982;BME280;26708;50.304;19.028;2023-05-23T03:18:58;98033.19;;;14.51;53.82
40982;BME280;26708;50.304;19.028;2023-05-23T03:21:05;97916.13;;;13.67;53.99
40982;BME280;26708;50.304;19.028;2023-05-23T03:23:12;98030.47;;;14.54;53.66
40982;BME280;26708;50.304;19.028;2023-05-23T03:25:19;98029.63;;;14.54;53.91
40982;BME280;26708;50.304;19.028;2023-05-23T03:27:24;98024.38;;;14.54;54.30
40982;BME280;26708;50.304;19.028;2023-05-23T03:29:30;98011.50;;;14.42;54.24
40982;BME280;26708;50.304;19.028;2023-05-23T03:31:34;98026.22;;;14.50;54.15
40982;BME280;26708;50.304;19.028;2023-05-23T03:33:39;98028.78;;;14.52;54.16
40982;BME280;26708;50.304;19.028;2023-05-23T03:35:45;98031.41;;;14.52;54.27
40982;BME280;26708;50.304;19.028;2023-05-23T03:37:49;98024.38;;;14.54;54.27
40982;BME280;26708;50.304;19.028;2023-05-23T03:39:57;98026.88;;;14.58;54.24
40982;BME280;26708;50.304;19.028;2023-05-23T03:42:02;97928.69;;;13.88;54.12
40982;BME280;26708;50.304;19.028;2023-05-23T03:44:07;98027.69;;;14.60;53.98
40982;BME280;26708;50.304;19.028;2023-05-23T03:46:13;97900.50;;;13.93;53.75
40982;BME280;26708;50.304;19.028;2023-05-23T03:48:18;98031.00;;;14.67;53.67
40982;BME280;26708;50.304;19.028;2023-05-23T03:50:23;98022.16;;;14.69;52.87
40982;BME280;26708;50.304;19.028;2023-05-23T03:52:29;98019.50;;;14.71;52.70
40982;BME280;26708;50.304;19.028;2023-05-23T03:54:34;97899.38;;;14.01;52.52
40982;BME280;26708;50.304;19.028;2023-05-23T03:56:42;98028.19;;;14.74;52.42
40982;BME280;26708;50.304;19.028;2023-05-23T03:58:47;97980.66;;;14.47;52.07
40982;BME280;26708;50.304;19.028;2023-05-23T04:00:52;98022.91;;;14.74;52.07
40982;BME280;26708;50.304;19.028;2023-05-23T04:02:56;97935.63;;;14.25;52.12
40982;BME280;26708;50.304;19.028;2023-05-23T04:05:02;97777.72;;;13.29;51.99
40982;BME280;26708;50.304;19.028;2023-05-23T04:07:07;98019.22;;;14.80;52.46
40982;BME280;26708;50.304;19.028;2023-05-23T04:09:13;98020.00;;;14.83;52.47
40982;BME280;26708;50.304;19.028;2023-05-23T04:11:21;97985.50;;;14.62;52.41
40982;BME280;26708;50.304;19.028;2023-05-23T04:13:28;97986.94;;;14.73;52.31
40982;BME280;26708;50.304;19.028;2023-05-23T04:15:49;97998.13;;;14.81;52.29
40982;BME280;26708;50.304;19.028;2023-05-23T04:18:12;98018.06;;;14.90;52.30
40982;BME280;26708;50.304;19.028;2023-05-23T04:20:32;97880.16;;;13.99;51.93
40982;BME280;26708;50.304;19.028;2023-05-23T04:22:53;97946.25;;;14.53;51.93
40982;BME280;26708;50.304;19.028;2023-05-23T04:25:14;97948.19;;;14.46;51.72
40982;BME280;26708;50.304;19.028;2023-05-23T04:27:42;97889.25;;;14.20;51.48
40982;BME280;26708;50.304;19.028;2023-05-23T04:30:07;98021.13;;;15.07;51.60
40982;BME280;26708;50.304;19.028;2023-05-23T04:32:30;98018.38;;;15.10;51.41
40982;BME280;26708;50.304;19.028;2023-05-23T04:34:49;98020.22;;;15.08;51.87
40982;BME280;26708;50.304;19.028;2023-05-23T04:37:09;97985.72;;;14.85;51.40
40982;BME280;26708;50.304;19.028;2023-05-23T04:39:29;98015.13;;;15.02;51.71
40982;BME280;26708;50.304;19.028;2023-05-23T04:42:08;97971.97;;;14.74;51.65
40982;BME280;26708;50.304;19.028;2023-05-23T04:44:38;98017.72;;;15.03;51.61
40982;BME280;26708;50.304;19.028;2023-05-23T04:47:06;97976.03;;;14.85;51.79
40982;BME280;26708;50.304;19.028;2023-05-23T04:49:58;97971.75;;;14.81;51.74
40982;BME280;26708;50.304;19.028;2023-05-23T04:52:20;98005.41;;;15.02;51.93
40982;BME280;26708;50.304;19.028;2023-05-23T04:54:40;97939.81;;;14.63;52.18
40982;BME280;26708;50.304;19.028;2023-05-23T04:57:01;98011.28;;;15.12;52.19
40982;BME280;26708;50.304;19.028;2023-05-23T04:59:22;97982.47;;;15.06;51.89
40982;BME280;26708;50.304;19.028;2023-05-23T05:01:42;98003.94;;;15.23;51.61
40982;BME280;26708;50.304;19.028;2023-05-23T05:04:05;98000.22;;;15.30;51.68
40982;BME280;26708;50.304;19.028;2023-05-23T05:06:25;97975.97;;;15.17;51.41
40982;BME280;26708;50.304;19.028;2023-05-23T05:08:45;97942.13;;;15.04;51.19
40982;BME280;26708;50.304;19.028;2023-05-23T05:11:04;98005.13;;;15.40;51.28
40982;BME280;26708;50.304;19.028;2023-05-23T05:13:24;97999.69;;;15.46;51.02
40982;BME280;26708;50.304;19.028;2023-05-23T05:15:45;97986.50;;;15.46;51.06
40982;BME280;26708;50.304;19.028;2023-05-23T05:18:06;97998.44;;;15.58;50.88
40982;BME280;26708;50.304;19.028;2023-05-23T05:20:29;97962.94;;;15.40;50.38
40982;BME280;26708;50.304;19.028;2023-05-23T05:22:54;98001.66;;;15.67;50.35
40982;BME280;26708;50.304;19.028;2023-05-23T05:25:15;97874.03;;;14.89;50.33
40982;BME280;26708;50.304;19.028;2023-05-23T05:27:35;97990.75;;;15.78;50.46
40982;BME280;26708;50.304;19.028;2023-05-23T05:29:43;97970.84;;;15.68;50.66
40982;BME280;26708;50.304;19.028;2023-05-23T05:31:48;97975.84;;;15.77;50.29
40982;BME280;26708;50.304;19.028;2023-05-23T05:33:53;97999.06;;;15.93;50.58
40982;BME280;26708;50.304;19.028;2023-05-23T05:36:01;97995.47;;;15.96;50.21
40982;BME280;26708;50.304;19.028;2023-05-23T05:38:06;97928.31;;;15.51;50.14
40982;BME280;26708;50.304;19.028;2023-05-23T05:40:13;97992.63;;;16.02;50.18
40982;BME280;26708;50.304;19.028;2023-05-23T05:42:19;97994.19;;;16.07;49.74
40982;BME280;26708;50.304;19.028;2023-05-23T05:44:23;97991.28;;;16.14;49.59
40982;BME280;26708;50.304;19.028;2023-05-23T05:46:28;97995.28;;;16.26;49.48
40982;BME280;26708;50.304;19.028;2023-05-23T05:48:47;97987.94;;;16.34;48.96
40982;BME280;26708;50.304;19.028;2023-05-23T05:51:11;97980.78;;;16.37;48.77
40982;BME280;26708;50.304;19.028;2023-05-23T05:53:31;97987.75;;;16.40;49.06
40982;BME280;26708;50.304;19.028;2023-05-23T05:55:53;97959.00;;;16.31;48.38
40982;BME280;26708;50.304;19.028;2023-05-23T05:58:12;97977.75;;;16.48;48.43
40982;BME280;26708;50.304;19.028;2023-05-23T06:00:53;97988.88;;;16.57;48.43
40982;BME280;26708;50.304;19.028;2023-05-23T06:03:14;97981.41;;;16.68;48.62
40982;BME280;26708;50.304;19.028;2023-05-23T06:05:41;97982.03;;;16.76;48.05
40982;BME280;26708;50.304;19.028;2023-05-23T06:08:01;97930.00;;;16.54;47.53
40982;BME280;26708;50.304;19.028;2023-05-23T06:10:07;97979.75;;;16.90;47.20
40982;BME280;26708;50.304;19.028;2023-05-23T06:12:13;97877.72;;;16.39;47.02
40982;BME280;26708;50.304;19.028;2023-05-23T06:14:18;97977.59;;;17.01;47.33
40982;BME280;26708;50.304;19.028;2023-05-23T06:16:23;97978.16;;;17.09;47.87
40982;BME280;26708;50.304;19.028;2023-05-23T06:18:27;97975.16;;;17.18;47.61
40982;BME280;26708;50.304;19.028;2023-05-23T06:20:33;97976.53;;;17.28;47.56
40982;BME280;26708;50.304;19.028;2023-05-23T06:22:41;97974.34;;;17.39;47.82
40982;BME280;26708;50.304;19.028;2023-05-23T06:24:48;97953.16;;;17.39;47.73
40982;BME280;26708;50.304;19.028;2023-05-23T06:27:07;97974.38;;;17.61;47.13
40982;BME280;26708;50.304;19.028;2023-05-23T06:29:26;97966.09;;;17.68;46.82
40982;BME280;26708;50.304;19.028;2023-05-23T06:31:46;97968.38;;;17.77;47.05
40982;BME280;26708;50.304;19.028;2023-05-23T06:34:05;97898.94;;;17.49;47.01
40982;BME280;26708;50.304;19.028;2023-05-23T06:36:25;97962.16;;;18.00;46.86
40982;BME280;26708;50.304;19.028;2023-05-23T06:38:44;97950.63;;;18.01;46.58
40982;BME280;26708;50.304;19.028;2023-05-23T06:41:08;97957.78;;;18.19;46.37
40982;BME280;26708;50.304;19.028;2023-05-23T06:43:27;97938.41;;;18.18;46.16
40982;BME280;26708;50.304;19.028;2023-05-23T06:46:02;97962.22;;;18.40;46.05
40982;BME280;26708;50.304;19.028;2023-05-23T06:48:07;97962.78;;;18.46;46.16
40982;BME280;26708;50.304;19.028;2023-05-23T06:50:11;97942.72;;;18.41;45.75
40982;BME280;26708;50.304;19.028;2023-05-23T06:52:21;97829.66;;;17.81;45.34
40982;BME280;26708;50.304;19.028;2023-05-23T06:54:25;97955.09;;;18.60;45.44
40982;BME280;26708;50.304;19.028;2023-05-23T06:56:33;97876.78;;;18.13;45.30
40982;BME280;26708;50.304;19.028;2023-05-23T06:58:39;97946.09;;;18.64;45.43
40982;BME280;26708;50.304;19.028;2023-05-23T07:00:44;97955.63;;;18.68;44.59
40982;BME280;26708;50.304;19.028;2023-05-23T07:03:01;97943.88;;;18.74;45.09
40982;BME280;26708;50.304;19.028;2023-05-23T07:05:07;97939.00;;;18.65;45.33
40982;BME280;26708;50.304;19.028;2023-05-23T07:07:20;97953.50;;;18.76;45.23
40982;BME280;26708;50.304;19.028;2023-05-23T07:09:25;97954.00;;;18.84;45.13
40982;BME280;26708;50.304;19.028;2023-05-23T07:11:44;97952.06;;;18.88;45.03
40982;BME280;26708;50.304;19.028;2023-05-23T07:13:49;97947.44;;;18.93;44.85
40982;BME280;26708;50.304;19.028;2023-05-23T07:16:16;97923.63;;;18.91;44.32
40982;BME280;26708;50.304;19.028;2023-05-23T07:18:32;97921.63;;;18.96;44.79
40982;BME280;26708;50.304;19.028;2023-05-23T07:20:37;97937.66;;;19.13;44.68
40982;BME280;26708;50.304;19.028;2023-05-23T07:22:51;97907.16;;;19.03;44.43
40982;BME280;26708;50.304;19.028;2023-05-23T07:24:56;97928.31;;;19.23;44.28
40982;BME280;26708;50.304;19.028;2023-05-23T07:27:08;97924.44;;;19.30;44.63
40982;BME280;26708;50.304;19.028;2023-05-23T07:29:13;97900.22;;;19.19;44.05
40982;BME280;26708;50.304;19.028;2023-05-23T07:31:21;97930.97;;;19.42;43.63
40982;BME280;26708;50.304;19.028;2023-05-23T07:33:28;97931.53;;;19.48;43.25
40982;BME280;26708;50.304;19.028;2023-05-23T07:35:37;97936.84;;;19.48;43.05
40982;BME280;26708;50.304;19.028;2023-05-23T07:37:43;97924.81;;;19.41;43.06
40982;BME280;26708;50.304;19.028;2023-05-23T07:39:48;97915.03;;;19.42;42.89
40982;BME280;26708;50.304;19.028;2023-05-23T07:41:53;97934.97;;;19.50;42.99
40982;BME280;26708;50.304;19.028;2023-05-23T07:44:01;97927.78;;;19.52;43.13
40982;BME280;26708;50.304;19.028;2023-05-23T07:46:05;97924.13;;;19.55;43.37
40982;BME280;26708;50.304;19.028;2023-05-23T07:48:11;97925.63;;;19.60;43.48
40982;BME280;26708;50.304;19.028;2023-05-23T07:50:17;97933.31;;;19.66;43.78
40982;BME280;26708;50.304;19.028;2023-05-23T07:52:23;97924.31;;;19.69;43.42
40982;BME280;26708;50.304;19.028;2023-05-23T07:54:27;97892.91;;;19.60;43.49
40982;BME280;26708;50.304;19.028;2023-05-23T07:56:37;97911.53;;;19.77;43.41
40982;BME280;26708;50.304;19.028;2023-05-23T07:58:42;97870.16;;;19.54;42.20
40982;BME280;26708;50.304;19.028;2023-05-23T08:00:49;97805.63;;;19.18;42.28
40982;BME280;26708;50.304;19.028;2023-05-23T08:03:15;97919.59;;;19.92;41.99
40982;BME280;26708;50.304;19.028;2023-05-23T08:05:31;97915.94;;;19.95;41.52
40982;BME280;26708;50.304;19.028;2023-05-23T08:07:35;97921.09;;;19.98;42.36
40982;BME280;26708;50.304;19.028;2023-05-23T08:09:41;97908.44;;;20.03;42.10
40982;BME280;26708;50.304;19.028;2023-05-23T08:11:49;97919.53;;;20.11;42.09
40982;BME280;26708;50.304;19.028;2023-05-23T08:13:55;97763.09;;;19.37;42.02
40982;BME280;26708;50.304;19.028;2023-05-23T08:16:15;97907.88;;;20.30;41.58
40982;BME280;26708;50.304;19.028;2023-05-23T08:18:20;97909.47;;;20.34;41.23
40982;BME280;26708;50.304;19.028;2023-05-23T08:20:24;97918.66;;;20.44;41.79
40982;BME280;26708;50.304;19.028;2023-05-23T08:22:31;97905.38;;;20.44;41.53
40982;BME280;26708;50.304;19.028;2023-05-23T08:24:37;97916.09;;;20.59;41.54
40982;BME280;26708;50.304;19.028;2023-05-23T08:26:42;97893.47;;;20.51;41.09
40982;BME280;26708;50.304;19.028;2023-05-23T08:28:49;97903.41;;;20.64;40.97
40982;BME280;26708;50.304;19.028;2023-05-23T08:30:54;97910.13;;;20.71;40.60
40982;BME280;26708;50.304;19.028;2023-05-23T08:33:03;97886.56;;;20.64;41.21
40982;BME280;26708;50.304;19.028;2023-05-23T08:35:10;97841.88;;;20.38;40.39
40982;BME280;26708;50.304;19.028;2023-05-23T08:37:30;97901.97;;;20.74;40.97
40982;BME280;26708;50.304;19.028;2023-05-23T08:39:50;97903.47;;;20.80;40.84
40982;BME280;26708;50.304;19.028;2023-05-23T08:42:25;97818.19;;;20.34;40.85
40982;BME280;26708;50.304;19.028;2023-05-23T08:44:45;97897.78;;;20.86;40.01
40982;BME280;26708;50.304;19.028;2023-05-23T08:47:07;97900.31;;;20.89;40.73
40982;BME280;26708;50.304;19.028;2023-05-23T08:49:39;97910.69;;;20.93;39.20
40982;BME280;26708;50.304;19.028;2023-05-23T08:51:44;97839.81;;;20.60;39.79
40982;BME280;26708;50.304;19.028;2023-05-23T08:53:56;97877.13;;;20.91;40.46
40982;BME280;26708;50.304;19.028;2023-05-23T08:56:05;97886.75;;;21.09;39.38
40982;BME280;26708;50.304;19.028;2023-05-23T08:58:18;97894.31;;;21.16;39.18
40982;BME280;26708;50.304;19.028;2023-05-23T09:00:30;97800.53;;;20.65;39.14
40982;BME280;26708;50.304;19.028;2023-05-23T09:02:38;97896.41;;;21.27;38.54
40982;BME280;26708;50.304;19.028;2023-05-23T09:04:58;97795.47;;;20.76;37.97
40982;BME280;26708;50.304;19.028;2023-05-23T09:07:03;97880.53;;;21.25;38.37
40982;BME280;26708;50.304;19.028;2023-05-23T09:09:09;97899.94;;;21.43;38.89
40982;BME280;26708;50.304;19.028;2023-05-23T09:11:16;97895.88;;;21.51;38.52
40982;BME280;26708;50.304;19.028;2023-05-23T09:13:22;97892.88;;;21.57;38.46
40982;BME280;26708;50.304;19.028;2023-05-23T09:15:29;97893.56;;;21.61;39.24
40982;BME280;26708;50.304;19.028;2023-05-23T09:17:44;97898.34;;;21.70;38.37
40982;BME280;26708;50.304;19.028;2023-05-23T09:19:49;97894.47;;;21.75;38.57
40982;BME280;26708;50.304;19.028;2023-05-23T09:22:04;97888.03;;;21.79;38.17
40982;BME280;26708;50.304;19.028;2023-05-23T09:24:18;97869.78;;;21.72;37.94
40982;BME280;26708;50.304;19.028;2023-05-23T09:26:23;97880.34;;;21.89;38.09
40982;BME280;26708;50.304;19.028;2023-05-23T09:28:30;97871.69;;;21.85;37.43
40982;BME280;26708;50.304;19.028;2023-05-23T09:30:57;97883.53;;;21.95;37.06
40982;BME280;26708;50.304;19.028;2023-05-23T09:33:03;97878.97;;;21.97;36.88
40982;BME280;26708;50.304;19.028;2023-05-23T09:35:09;97884.97;;;22.01;36.07
40982;BME280;26708;50.304;19.028;2023-05-23T09:37:17;97891.88;;;22.05;35.28
40982;BME280;26708;50.304;19.028;2023-05-23T09:39:25;97885.56;;;22.06;35.29
40982;BME280;26708;50.304;19.028;2023-05-23T09:41:47;97857.91;;;21.93;35.29
40982;BME280;26708;50.304;19.028;2023-05-23T09:43:53;97882.28;;;22.16;35.22
40982;BME280;26708;50.304;19.028;2023-05-23T09:46:00;97879.50;;;22.18;34.70
40982;BME280;26708;50.304;19.028;2023-05-23T09:48:11;97884.47;;;22.24;34.93
40982;BME280;26708;50.304;19.028;2023-05-23T09:50:16;97877.81;;;22.31;34.95
40982;BME280;26708;50.304;19.028;2023-05-23T09:52:25;97823.97;;;22.10;35.29
40982;BME280;26708;50.304;19.028;2023-05-23T09:54:29;97878.00;;;22.42;34.88
40982;BME280;26708;50.304;19.028;2023-05-23T09:56:39;97882.03;;;22.49;34.39
40982;BME280;26708;50.304;19.028;2023-05-23T09:58:47;97835.22;;;22.29;33.97
40982;BME280;26708;50.304;19.028;2023-05-23T10:00:54;97870.16;;;22.54;33.63
40982;BME280;26708;50.304;19.028;2023-05-23T10:03:09;97874.28;;;22.60;33.17
40982;BME280;26708;50.304;19.028;2023-05-23T10:05:29;97868.56;;;22.66;33.77
40982;BME280;26708;50.304;19.028;2023-05-23T10:07:40;97798.97;;;22.27;32.89
40982;BME280;26708;50.304;19.028;2023-05-23T10:09:54;97872.28;;;22.77;33.08
40982;BME280;26708;50.304;19.028;2023-05-23T10:12:35;97857.84;;;22.80;32.56
40982;BME280;26708;50.304;19.028;2023-05-23T10:14:51;97840.63;;;22.71;32.92
40982;BME280;26708;50.304;19.028;2023-05-23T10:17:07;97858.13;;;22.89;32.77
40982;BME280;26708;50.304;19.028;2023-05-23T10:19:23;97854.34;;;22.93;32.98
40982;BME280;26708;50.304;19.028;2023-05-23T10:21:34;97855.94;;;22.96;32.19
40982;BME280;26708;50.304;19.028;2023-05-23T10:23:47;97836.41;;;22.81;32.63
40982;BME280;26708;50.304;19.028;2023-05-23T10:25:54;97808.66;;;22.56;32.72
40982;BME280;26708;50.304;19.028;2023-05-23T10:27:58;97805.25;;;22.68;33.12
40982;BME280;26708;50.304;19.028;2023-05-23T10:30:04;97733.50;;;22.35;32.94
40982;BME280;26708;50.304;19.028;2023-05-23T10:32:12;97749.50;;;22.49;32.83
40982;BME280;26708;50.304;19.028;2023-05-23T10:34:24;97840.75;;;23.10;32.14
40982;BME280;26708;50.304;19.028;2023-05-23T10:36:43;97744.47;;;22.59;33.45
40982;BME280;26708;50.304;19.028;2023-05-23T10:39:04;97757.88;;;22.57;33.29
40982;BME280;26708;50.304;19.028;2023-05-23T10:41:24;97781.16;;;22.96;33.01
40982;BME280;26708;50.304;19.028;2023-05-23T10:43:43;97839.22;;;23.34;32.78
40982;BME280;26708;50.304;19.028;2023-05-23T10:45:55;97776.00;;;23.07;33.06
40982;BME280;26708;50.304;19.028;2023-05-23T10:48:00;97836.88;;;23.42;33.53
40982;BME280;26708;50.304;19.028;2023-05-23T10:50:05;97766.28;;;23.06;33.16
40982;BME280;26708;50.304;19.028;2023-05-23T10:52:16;97833.69;;;23.50;32.86
40982;BME280;26708;50.304;19.028;2023-05-23T10:54:24;97834.56;;;23.50;32.47
40982;BME280;26708;50.304;19.028;2023-05-23T10:56:30;97829.78;;;23.55;33.46
40982;BME280;26708;50.304;19.028;2023-05-23T10:58:38;97828.59;;;23.59;33.55
40982;BME280;26708;50.304;19.028;2023-05-23T11:00:52;97839.00;;;23.64;33.65
40982;BME280;26708;50.304;19.028;2023-05-23T11:02:59;97821.03;;;23.66;33.70
40982;BME280;26708;50.304;19.028;2023-05-23T11:05:19;97817.06;;;23.59;33.37
40982;BME280;26708;50.304;19.028;2023-05-23T11:07:29;97831.41;;;23.70;33.48
40982;BME280;26708;50.304;19.028;2023-05-23T11:10:03;97823.19;;;23.73;33.73
40982;BME280;26708;50.304;19.028;2023-05-23T11:12:12;97824.81;;;23.76;34.43
40982;BME280;26708;50.304;19.028;2023-05-23T11:14:18;97797.09;;;23.64;33.54
40982;BME280;26708;50.304;19.028;2023-05-23T11:16:25;97815.63;;;23.80;33.87
40982;BME280;26708;50.304;19.028;2023-05-23T11:18:33;97806.47;;;23.84;33.70
40982;BME280;26708;50.304;19.028;2023-05-23T11:20:39;97808.09;;;23.86;34.15
40982;BME280;26708;50.304;19.028;2023-05-23T11:22:53;97805.09;;;23.91;33.55
40982;BME280;26708;50.304;19.028;2023-05-23T11:25:09;97817.38;;;23.93;33.34
40982;BME280;26708;50.304;19.028;2023-05-23T11:27:17;97780.97;;;23.78;33.92
40982;BME280;26708;50.304;19.028;2023-05-23T11:29:29;97785.81;;;23.86;33.15
40982;BME280;26708;50.304;19.028;2023-05-23T11:31:36;97803.06;;;23.94;33.60
40982;BME280;26708;50.304;19.028;2023-05-23T11:33:41;97785.09;;;23.84;33.34
40982;BME280;26708;50.304;19.028;2023-05-23T11:35:47;97753.44;;;23.64;33.11